createdAt,value
2024-05-09T00:03:14.918Z,11.30
2024-05-09T00:07:31.647Z,13.27
2024-05-09T00:11:45.939Z,15.65
2024-05-09T00:15:50.587Z,15.27
2024-05-09T00:19:55.391Z,16.38
2024-05-09T00:24:00.098Z,16.33
2024-05-09T00:28:07.931Z,15.90
2024-05-09T00:32:15.554Z,17.10
2024-05-09T00:36:20.180Z,15.10
2024-05-09T00:40:35.039Z,12.73
2024-05-09T00:44:53.596Z,11.20
2024-05-09T00:48:58.677Z,12.82
2024-05-09T00:53:03.470Z,12.80
2024-05-09T00:57:32.151Z,12.95
2024-05-09T01:01:39.784Z,14.43
2024-05-09T01:05:53.628Z,13.23
2024-05-09T01:09:58.384Z,14.00
2024-05-09T01:14:03.125Z,13.60
2024-05-09T01:18:13.773Z,12.85
2024-05-09T01:22:18.724Z,12.80
2024-05-09T01:26:49.937Z,11.80
2024-05-09T01:30:54.585Z,12.02
2024-05-09T01:35:36.371Z,11.23
2024-05-09T01:39:41.136Z,11.50
2024-05-09T01:43:48.480Z,11.38
2024-05-09T01:47:54.570Z,11.88
2024-05-09T01:51:59.403Z,11.75
2024-05-09T01:56:04.030Z,11.15
2024-05-09T02:00:15.655Z,10.95
2024-05-09T02:04:20.779Z,11.80
2024-05-09T02:08:48.532Z,12.88
2024-05-09T02:12:53.382Z,11.68
2024-05-09T02:17:00.868Z,13.75
2024-05-09T02:21:05.635Z,12.52
2024-05-09T02:25:23.426Z,13.27
2024-05-09T02:29:28.036Z,13.90
2024-05-09T02:33:35.607Z,12.57
2024-05-09T02:37:40.427Z,12.95
2024-05-09T02:41:42.426Z,12.93
2024-05-09T02:45:54.174Z,13.20
2024-05-09T02:50:01.666Z,12.57
2024-05-09T02:54:07.794Z,13.18
2024-05-09T02:58:12.852Z,13.48
2024-05-09T03:02:17.716Z,12.80
2024-05-09T03:06:25.006Z,18.80
2024-05-09T03:10:35.489Z,12.82
2024-05-09T03:14:45.098Z,14.73
2024-05-09T03:18:50.228Z,20.95
2024-05-09T03:22:57.761Z,14.13
2024-05-09T03:27:03.734Z,14.05
2024-05-09T03:31:09.373Z,13.93
2024-05-09T03:35:14.195Z,13.02
2024-05-09T03:39:29.323Z,14.57
2024-05-09T03:43:37.167Z,13.48
2024-05-09T03:47:42.201Z,14.27
2024-05-09T03:51:49.163Z,13.38
2024-05-09T03:55:57.058Z,14.43
2024-05-09T04:00:02.868Z,14.23
2024-05-09T04:04:09.088Z,14.07
2024-05-09T04:08:13.981Z,13.63
2024-05-09T04:12:21.400Z,16.15
2024-05-09T04:16:35.598Z,17.70
2024-05-09T04:20:41.298Z,14.75
2024-05-09T04:24:46.176Z,15.13
2024-05-09T04:34:10.808Z,16.30
2024-05-09T04:38:16.096Z,14.15
2024-05-09T04:42:21.186Z,14.88
2024-05-09T04:46:28.950Z,16.77
2024-05-09T04:50:38.820Z,15.38
2024-05-09T04:54:53.048Z,18.50
2024-05-09T04:59:13.096Z,15.90
2024-05-09T05:03:18.148Z,15.82
2024-05-09T05:07:29.549Z,15.55
2024-05-09T05:11:31.873Z,16.52
2024-05-09T05:21:24.182Z,16.48
2024-05-09T05:25:34.022Z,15.43
2024-05-09T05:38:40.932Z,12.93
2024-05-09T05:42:46.895Z,13.38
2024-05-09T05:51:34.850Z,12.43
2024-05-09T06:00:02.959Z,12.02
2024-05-09T06:04:09.833Z,12.68
2024-05-09T06:08:14.938Z,12.55
2024-05-09T06:12:20.384Z,11.38
2024-05-09T06:16:42.075Z,12.20
2024-05-09T06:20:50.643Z,10.88
2024-05-09T06:24:52.775Z,11.38
2024-05-09T06:33:34.766Z,11.13
2024-05-09T06:37:41.780Z,10.15
2024-05-09T06:41:46.685Z,11.07
2024-05-09T06:45:52.843Z,11.25
2024-05-09T06:50:13.013Z,11.68
2024-05-09T06:54:21.520Z,10.65
2024-05-09T06:58:26.474Z,11.93
2024-05-09T07:02:32.449Z,12.43
2024-05-09T07:06:40.204Z,12.43
2024-05-09T07:10:45.243Z,11.77
2024-05-09T07:14:51.502Z,11.65
2024-05-09T07:18:57.248Z,10.80
2024-05-09T07:23:05.277Z,11.73
2024-05-09T07:27:10.392Z,10.35
2024-05-09T07:31:16.154Z,10.65
2024-05-09T07:35:34.569Z,8.73
2024-05-09T07:39:41.997Z,9.30
2024-05-09T07:43:47.396Z,9.40
2024-05-09T07:49:43.987Z,6.28
2024-05-09T07:56:44.452Z,5.55
2024-05-09T08:00:49.383Z,5.50
2024-05-09T08:04:54.233Z,7.28
2024-05-09T08:09:05.429Z,6.15
2024-05-09T08:13:31.985Z,5.35
2024-05-09T08:17:36.938Z,5.13
2024-05-09T08:21:48.881Z,4.85
2024-05-09T08:25:53.600Z,4.97
2024-05-09T08:30:01.101Z,3.85
2024-05-09T08:34:08.645Z,5.25
2024-05-09T08:38:25.590Z,5.03
2024-05-09T08:42:30.343Z,5.47
2024-05-09T08:46:49.913Z,5.03
2024-05-09T08:50:59.637Z,4.03
2024-05-09T08:55:11.852Z,4.40
2024-05-09T08:59:23.874Z,4.00
2024-05-09T09:03:36.728Z,3.60
2024-05-09T09:07:42.140Z,3.60
2024-05-09T09:11:46.963Z,3.60
2024-05-09T09:15:52.168Z,4.03
2024-05-09T09:20:14.386Z,2.85
2024-05-09T09:24:33.050Z,3.28
2024-05-09T09:28:54.873Z,3.25
2024-05-09T09:32:59.771Z,2.95
2024-05-09T09:37:09.885Z,2.90
2024-05-09T09:41:16.325Z,2.67
2024-05-09T09:45:32.723Z,2.75
2024-05-09T09:49:39.728Z,3.65
2024-05-09T09:53:47.501Z,2.60
2024-05-09T09:58:07.025Z,2.88
2024-05-09T10:02:14.129Z,2.90
2024-05-09T10:06:24.790Z,27.33
2024-05-09T10:10:36.187Z,2.90
2024-05-09T10:14:48.596Z,2.60
2024-05-09T10:18:59.273Z,3.05
2024-05-09T10:23:05.903Z,2.70
2024-05-09T10:46:04.586Z,2.70
2024-05-09T10:50:18.610Z,2.40
2024-05-09T10:54:38.635Z,2.28
2024-05-09T10:58:43.646Z,2.22
2024-05-09T11:02:48.679Z,1.80
2024-05-09T11:06:53.802Z,1.88
2024-05-09T11:10:59.888Z,2.00
2024-05-09T11:15:05.902Z,2.28
2024-05-09T11:19:14.676Z,1.95
2024-05-09T11:23:21.883Z,2.00
2024-05-09T11:27:35.014Z,1.77
2024-05-09T11:31:52.139Z,2.38
2024-05-09T11:36:01.581Z,1.83
2024-05-09T11:40:11.644Z,2.10
2024-05-09T11:44:29.970Z,1.77
2024-05-09T11:48:34.936Z,2.85
2024-05-09T11:52:43.089Z,2.10
2024-05-09T11:56:47.879Z,2.00
2024-05-09T12:00:52.581Z,2.10
2024-05-09T12:04:57.568Z,1.90
2024-05-09T12:09:04.972Z,1.85
2024-05-09T12:13:09.979Z,1.95
2024-05-09T12:17:15.422Z,1.80
2024-05-09T12:21:20.325Z,1.80
2024-05-09T12:25:28.311Z,1.98
2024-05-09T12:29:34.427Z,2.08
2024-05-09T12:33:40.820Z,2.95
2024-05-09T12:37:42.962Z,2.00
2024-05-09T12:41:51.488Z,1.70
2024-05-09T12:45:56.308Z,1.77
2024-05-09T12:50:13.396Z,2.17
2024-05-09T12:54:23.196Z,1.90
2024-05-09T12:58:31.731Z,1.90
2024-05-09T13:02:36.447Z,2.13
2024-05-09T13:06:43.146Z,1.75
2024-05-09T13:10:47.955Z,1.73
2024-05-09T13:14:55.513Z,1.55
2024-05-09T13:19:01.319Z,1.98
2024-05-09T13:23:08.360Z,1.85
2024-05-09T13:27:13.485Z,2.03
2024-05-09T13:31:28.324Z,1.90
2024-05-09T13:35:35.509Z,1.75
2024-05-09T13:39:40.836Z,1.80
2024-05-09T13:43:45.522Z,1.50
2024-05-09T13:48:00.741Z,1.73
2024-05-09T13:52:05.412Z,2.00
2024-05-09T13:56:12.025Z,1.50
2024-05-09T14:00:27.429Z,1.60
2024-05-09T14:04:44.696Z,1.83
2024-05-09T14:08:49.473Z,1.98
2024-05-09T14:12:54.217Z,1.70
2024-05-09T14:17:04.816Z,1.70
2024-05-09T14:21:12.262Z,1.48
2024-05-09T14:25:17.253Z,1.80
2024-05-09T14:29:22.237Z,2.33
2024-05-09T14:33:27.691Z,1.67
2024-05-09T14:37:37.938Z,1.80
2024-05-09T14:41:44.940Z,1.52
2024-05-09T14:45:49.539Z,1.65
2024-05-09T14:49:51.945Z,1.60
2024-05-09T14:54:00.242Z,1.50
2024-05-09T14:58:04.887Z,1.80
2024-05-09T15:02:09.919Z,1.55
2024-05-09T15:06:14.788Z,1.77
2024-05-09T15:10:31.094Z,1.50
2024-05-09T15:14:40.492Z,1.50
2024-05-09T15:18:46.482Z,1.63
2024-05-09T15:22:58.031Z,1.50
2024-05-09T15:27:06.794Z,1.65
2024-05-09T15:35:24.128Z,1.75
2024-05-09T15:39:30.457Z,1.40
2024-05-09T15:43:37.822Z,1.70
2024-05-09T15:47:53.609Z,1.30
2024-05-09T15:52:05.119Z,1.50
2024-05-09T15:56:13.056Z,1.70
2024-05-09T16:00:28.500Z,1.83
2024-05-09T16:04:40.504Z,1.70
2024-05-09T16:08:45.462Z,1.63
2024-05-09T16:12:51.072Z,1.70
2024-05-09T16:16:58.454Z,1.70
2024-05-09T16:21:08.690Z,1.70
2024-05-09T16:25:13.348Z,1.65
2024-05-09T16:29:19.115Z,1.67
2024-05-09T16:33:26.508Z,1.80
2024-05-09T16:37:32.275Z,1.70
2024-05-09T16:41:36.993Z,1.50
2024-05-09T16:45:44.728Z,1.95
2024-05-09T16:49:58.234Z,1.77
2024-05-09T16:54:03.865Z,1.60
2024-05-09T16:58:09.327Z,1.85
2024-05-09T17:02:20.070Z,2.08
2024-05-09T17:06:27.569Z,4.63
2024-05-09T17:10:34.376Z,4.50
2024-05-09T17:14:39.983Z,1.73
2024-05-09T17:18:48.795Z,1.80
2024-05-09T17:23:05.955Z,1.77
2024-05-09T17:27:11.326Z,1.90
2024-05-09T17:31:16.118Z,1.67
2024-05-09T17:35:18.034Z,1.85
2024-05-09T17:39:25.387Z,2.30
2024-05-09T17:43:30.225Z,2.30
2024-05-09T17:47:38.438Z,2.55
2024-05-09T17:51:53.928Z,1.80
2024-05-09T17:56:05.116Z,1.88
2024-05-09T18:00:11.860Z,2.47
2024-05-09T18:04:16.740Z,2.00
2024-05-09T18:08:21.594Z,2.00
2024-05-09T18:12:28.863Z,2.17
2024-05-09T18:16:33.700Z,2.00
2024-05-09T18:20:44.568Z,1.80
2024-05-09T18:24:50.702Z,1.95
2024-05-09T18:28:58.386Z,1.90
2024-05-09T18:33:03.176Z,2.20
2024-05-09T18:37:09.495Z,2.08
2024-05-09T18:41:14.795Z,2.15
2024-05-09T18:45:22.326Z,5.68
2024-05-09T18:49:27.116Z,2.80
2024-05-09T18:53:32.068Z,2.70
2024-05-09T18:57:36.949Z,2.58
2024-05-09T19:01:44.473Z,2.42
2024-05-09T19:05:51.745Z,2.35
2024-05-09T19:09:53.959Z,2.70
2024-05-09T19:14:03.553Z,3.03
2024-05-09T19:22:17.941Z,2.88
2024-05-09T19:26:22.676Z,3.10
2024-05-09T19:30:36.690Z,4.50
2024-05-09T19:34:48.580Z,4.00
2024-05-09T19:38:53.510Z,5.82
2024-05-09T19:42:58.156Z,4.70
2024-05-09T19:47:05.009Z,4.65
2024-05-09T19:51:12.463Z,4.07
2024-05-09T19:55:17.278Z,3.92
2024-05-09T19:59:22.126Z,4.38
2024-05-09T20:03:26.944Z,6.03
2024-05-09T20:07:36.303Z,5.50
2024-05-09T20:11:41.434Z,6.88
2024-05-09T20:15:43.661Z,5.40
2024-05-09T20:19:48.874Z,5.57
2024-05-09T20:23:56.798Z,5.00
2024-05-09T20:28:01.538Z,4.82
2024-05-09T20:32:06.649Z,4.07
2024-05-09T20:36:11.384Z,4.28
2024-05-09T20:40:25.757Z,4.65
2024-05-09T20:44:36.600Z,4.32
2024-05-09T20:48:41.599Z,4.60
2024-05-09T20:52:46.260Z,4.70
2024-05-09T20:56:50.961Z,4.60
2024-05-09T21:00:57.807Z,4.30
2024-05-09T21:05:02.850Z,3.55
2024-05-09T21:09:07.651Z,4.55
2024-05-09T21:13:15.278Z,3.92
2024-05-09T21:17:22.095Z,4.57
2024-05-09T21:21:26.777Z,4.20
2024-05-09T21:25:32.649Z,3.58
2024-05-09T21:29:37.301Z,3.70
2024-05-09T21:33:43.177Z,3.25
2024-05-09T21:37:47.901Z,3.60
2024-05-09T21:41:52.533Z,3.78
2024-05-09T21:45:59.977Z,4.47
2024-05-09T21:50:07.677Z,4.25
2024-05-09T21:54:12.761Z,3.60
2024-05-09T21:58:18.695Z,3.58
2024-05-09T22:02:26.314Z,3.72
2024-05-09T22:06:31.067Z,3.47
2024-05-09T22:10:36.888Z,3.50
2024-05-09T22:14:41.895Z,3.33
2024-05-09T22:18:49.400Z,3.90
2024-05-09T22:22:54.467Z,2.97
2024-05-09T22:26:59.062Z,3.80
2024-05-09T22:31:03.763Z,2.92
2024-05-09T22:35:11.327Z,3.60
2024-05-09T22:39:17.797Z,3.63
2024-05-09T22:43:24.780Z,3.50
2024-05-09T22:47:30.150Z,3.53
2024-05-09T22:51:37.925Z,3.85
2024-05-09T22:55:42.513Z,5.68
2024-05-09T22:59:44.618Z,7.07
2024-05-09T23:03:49.802Z,5.70
2024-05-09T23:07:57.145Z,5.30
2024-05-09T23:12:01.768Z,4.45
2024-05-09T23:16:06.758Z,4.20
2024-05-09T23:20:11.622Z,4.25
2024-05-09T23:24:19.203Z,4.43
2024-05-09T23:28:24.055Z,3.97
2024-05-09T23:32:28.810Z,3.60
2024-05-09T23:36:33.539Z,4.13
2024-05-09T23:40:42.133Z,4.10
2024-05-09T23:44:53.816Z,4.28
2024-05-09T23:48:58.533Z,3.88
2024-05-09T23:53:03.178Z,3.92
2024-05-09T23:57:10.877Z,3.47
